Time;durP1;ratioP1;P1;durP2;ratioP2;P2;SDS_P1;SDS_P2;PMS_P1;PMS_P2;Temp;Humidity;BMP_temperature;BMP_pressure;BME280_temperature;BME280_humidity;BME280_pressure;Samples;Min_cycle;Max_cycle;Signal;HPM_P1;HPM_P2
2024/03/10 00:00:14;;;;;;;56.28;26.35;;;;;;;1.53;58.38;100145.66;1859840;77;25423;-62
2024/03/10 00:02:38;;;;;;;51.85;25.70;;;;;;;1.48;58.78;100151.23;1859449;76;25547;-62
2024/03/10 00:05:06;;;;;;;57.27;27.40;;;;;;;1.48;59.48;100151.73;1859905;76;28045;-62
2024/03/10 00:07:33;;;;;;;56.40;27.32;;;;;;;1.47;58.73;100157.61;1859760;76;25801;-62
2024/03/10 00:09:59;;;;;;;60.43;28.55;;;;;;;1.46;59.17;100156.52;1859885;77;25604;-62
2024/03/10 00:12:25;;;;;;;59.08;28.98;;;;;;;1.45;59.40;100153.59;1859834;77;25621;-62
2024/03/10 00:14:52;;;;;;;67.92;28.73;;;;;;;1.44;59.65;100152.77;1859848;76;25615;-61
2024/03/10 00:17:20;;;;;;;62.38;29.27;;;;;;;1.45;59.82;100150.94;1838589;77;27484;-61
2024/03/10 00:19:48;;;;;;;65.97;31.23;;;;;;;1.46;59.93;100149.86;1859807;76;26160;-62
2024/03/10 00:22:16;;;;;;;65.67;28.60;;;;;;;1.45;59.77;100151.73;1859859;76;25368;-63
2024/03/10 00:24:44;;;;;;;60.12;29.67;;;;;;;1.47;59.92;100144.81;1859899;76;25576;-61
2024/03/10 00:27:11;;;;;;;60.75;28.50;;;;;;;1.48;60.25;100144.56;1859904;77;25583;-59
2024/03/10 00:29:38;;;;;;;60.00;29.15;;;;;;;1.53;60.21;100142.45;1859927;76;28029;-62
2024/03/10 00:32:07;;;;;;;66.02;28.27;;;;;;;1.54;60.12;100137.95;1859747;76;25465;-62
2024/03/10 00:34:37;;;;;;;55.92;27.77;;;;;;;1.53;60.02;100131.80;1862702;76;25500;-62
2024/03/10 00:37:07;;;;;;;;;;;;;;;1.57;60.28;100136.13;1868965;76;25546;-63
2024/03/10 00:39:35;;;;;;;56.90;28.12;;;;;;;1.58;60.26;100135.05;1866502;76;25512;-63
2024/03/10 00:42:06;;;;;;;62.23;30.32;;;;;;;1.55;60.01;100135.03;1866102;76;27759;-63
2024/03/10 00:44:33;;;;;;;63.83;29.60;;;;;;;1.54;59.72;100139.28;1866108;76;25567;-62
2024/03/10 00:47:01;;;;;;;57.33;28.23;;;;;;;1.52;60.09;100128.87;1865503;76;25528;-62
2024/03/10 00:49:27;;;;;;;59.73;28.98;;;;;;;1.53;59.96;100139.00;1865391;76;26133;-62
2024/03/10 00:51:55;;;;;;;61.25;26.48;;;;;;;1.51;60.10;100133.12;1865639;76;25546;-62
2024/03/10 00:54:23;;;;;;;58.17;27.00;;;;;;;1.47;59.99;100137.62;1865574;76;27808;-63
2024/03/10 00:56:49;;;;;;;59.03;27.30;;;;;;;1.46;60.26;100136.02;1865447;76;25662;-61
2024/03/10 00:59:18;;;;;;;61.05;26.90;;;;;;;1.41;60.40;100131.95;1865560;76;25549;-61
2024/03/10 01:01:45;;;;;;;57.48;27.40;;;;;;;1.41;60.33;100131.95;1865590;76;31807;-62
2024/03/10 01:04:11;;;;;;;54.18;27.15;;;;;;;1.39;60.32;100126.61;1865528;76;25388;-62
2024/03/10 01:06:39;;;;;;;56.77;27.58;;;;;;;1.37;60.25;100124.19;1865463;76;27830;-62
2024/03/10 01:09:10;;;;;;;58.08;27.90;;;;;;;1.35;60.46;100116.98;1865365;76;25578;-61
2024/03/10 01:11:41;;;;;;;59.60;29.85;;;;;;;1.34;60.56;100122.02;1865646;76;25655;-60
2024/03/10 01:14:11;;;;;;;65.52;30.55;;;;;;;1.36;61.40;100120.44;1863977;76;26133;-64
2024/03/10 01:16:41;;;;;;;90.32;45.52;;;;;;;1.38;60.92;100115.66;1865442;76;25603;-64
2024/03/10 01:19:09;;;;;;;61.53;29.15;;;;;;;1.42;60.97;100116.24;1865445;76;27445;-60
2024/03/10 01:21:39;;;;;;;55.63;26.25;;;;;;;1.42;60.72;100118.91;1865518;76;25576;-62
2024/03/10 01:24:07;;;;;;;64.70;27.58;;;;;;;1.40;60.53;100110.37;1865427;76;25433;-60
2024/03/10 01:26:34;;;;;;;58.15;27.52;;;;;;;1.38;60.58;100112.48;1865440;76;25442;-62
2024/03/10 01:29:02;;;;;;;59.00;27.37;;;;;;;1.35;60.81;100109.52;1865516;76;25427;-62
2024/03/10 01:31:28;;;;;;;60.40;27.13;;;;;;;1.31;60.91;100109.20;1865545;76;27454;-62
2024/03/10 01:33:54;;;;;;;59.35;27.73;;;;;;;1.26;60.52;100108.64;1864982;76;25883;-61
2024/03/10 01:36:21;;;;;;;61.60;28.25;;;;;;;1.23;60.81;100109.67;1859295;76;25489;-61
2024/03/10 01:38:48;;;;;;;62.30;27.93;;;;;;;1.18;61.12;100102.42;1859079;76;25585;-61
2024/03/10 01:41:17;;;;;;;58.87;27.95;;;;;;;1.16;61.43;100097.87;1859191;77;25678;-60
2024/03/10 01:43:47;;;;;;;58.83;28.07;;;;;;;1.14;61.53;100097.84;1859112;76;28579;-60
2024/03/10 01:46:17;;;;;;;49.90;24.45;;;;;;;1.13;61.50;100102.37;1859167;77;25539;-60
2024/03/10 01:48:45;;;;;;;53.02;26.02;;;;;;;1.11;61.50;100099.16;1859074;76;25655;-60
2024/03/10 01:51:15;;;;;;;59.70;27.42;;;;;;;1.10;61.65;100104.99;1859076;77;25501;-60
2024/03/10 01:53:45;;;;;;;64.05;27.70;;;;;;;1.07;61.59;100105.52;1859267;76;25450;-62
2024/03/10 01:56:18;;;;;;;54.60;25.02;;;;;;;1.05;61.83;100108.14;1859225;77;27556;-60
2024/03/10 01:58:48;;;;;;;55.90;25.45;;;;;;;1.01;61.92;100102.51;1859123;76;25368;-62
2024/03/10 02:01:18;;;;;;;61.65;28.47;;;;;;;1.00;61.88;100105.42;1859138;76;25529;-61
2024/03/10 02:03:50;;;;;;;62.17;28.75;;;;;;;0.97;61.60;100108.58;1859078;76;26085;-62
2024/03/10 02:06:19;;;;;;;58.85;28.67;;;;;;;0.93;61.89;100111.73;1859211;77;25206;-62
2024/03/10 02:08:47;;;;;;;57.73;24.65;;;;;;;0.89;62.03;100102.64;1837747;77;27366;-61
2024/03/10 02:11:20;;;;;;;55.65;28.10;;;;;;;0.88;62.38;100105.02;1858963;76;25417;-62
2024/03/10 02:13:47;;;;;;;57.15;26.85;;;;;;;0.86;62.30;100100.47;1856588;76;25583;-61
2024/03/10 02:16:15;;;;;;;54.18;28.57;;;;;;;0.84;62.29;100108.45;1859281;76;25511;-62
2024/03/10 02:18:43;;;;;;;60.73;28.47;;;;;;;0.80;62.25;100102.81;1859170;76;25620;-62
2024/03/10 02:21:14;;;;;;;57.93;27.10;;;;;;;0.78;62.51;100101.44;1859145;77;28001;-61
2024/03/10 02:24:07;;;;;;;61.20;28.12;;;;;;;0.74;62.75;100100.59;1859073;76;25580;-62
2024/03/10 02:26:37;;;;;;;59.75;28.85;;;;;;;0.71;62.79;100103.75;1859074;77;25446;-61
2024/03/10 02:29:15;;;;;;;58.23;28.40;;;;;;;0.68;62.86;100104.77;1856041;76;25769;-61
2024/03/10 02:48:27;;;;;;;61.15;28.05;;;;;;;0.40;64.17;100105.77;1859073;76;28658;-60
2024/03/10 02:50:53;;;;;;;60.48;29.02;;;;;;;0.38;64.00;100107.88;1858928;77;25456;-60
2024/03/10 02:53:20;;;;;;;62.30;28.75;;;;;;;0.34;63.98;100105.70;1859000;76;25576;-60
2024/03/10 02:55:46;;;;;;;64.40;30.17;;;;;;;0.33;64.24;100101.95;1858968;76;25599;-61
2024/03/10 02:58:12;;;;;;;53.23;26.68;;;;;;;0.33;64.12;100115.25;1858977;77;25654;-61
2024/03/10 03:00:38;;;;;;;64.25;29.82;;;;;;;0.30;64.14;100114.41;1858134;76;28055;-61
2024/03/10 03:03:08;;;;;;;57.45;28.95;;;;;;;0.26;64.40;100118.08;1857312;76;25639;-60
2024/03/10 03:05:39;;;;;;;58.48;28.25;;;;;;;0.23;64.81;100115.91;1858262;77;25616;-61
2024/03/10 03:08:07;;;;;;;67.50;28.90;;;;;;;0.21;64.92;100113.23;1857736;76;25639;-61
2024/03/10 03:10:34;;;;;;;66.70;29.27;;;;;;;0.18;64.64;100113.17;1857957;76;25682;-61
2024/03/10 03:13:01;;;;;;;58.00;28.12;;;;;;;0.14;64.88;100111.53;1857968;76;27364;-61
2024/03/10 03:15:29;;;;;;;59.83;27.37;;;;;;;0.12;65.02;100111.48;1858268;77;25726;-60
2024/03/10 03:17:55;;;;;;;60.17;26.23;;;;;;;0.09;65.00;100104.81;1858928;77;25492;-61
2024/03/10 03:20:26;;;;;;;60.40;28.65;;;;;;;0.07;65.42;100105.58;1858961;76;25749;-60
2024/03/10 03:22:52;;;;;;;55.38;27.22;;;;;;;0.08;65.28;100115.16;1859161;76;25454;-61
2024/03/10 03:25:20;;;;;;;56.33;26.23;;;;;;;0.08;65.39;100113.03;1858908;76;28441;-60
2024/03/10 03:27:52;;;;;;;59.23;25.12;;;;;;;0.09;65.35;100115.45;1858930;76;25351;-61
2024/03/10 03:30:22;;;;;;;68.75;30.48;;;;;;;0.08;65.30;100117.02;1859036;76;25383;-61
2024/03/10 03:32:51;;;;;;;62.30;28.15;;;;;;;0.08;65.43;100123.67;1859010;76;25221;-61
2024/03/10 03:35:18;;;;;;;;;;;;;;;0.05;65.12;100127.63;1863893;76;25616;-61
2024/03/10 03:37:48;;;;;;;61.28;28.45;;;;;;;-0.01;65.37;100121.41;1865449;76;27575;-62
2024/03/10 03:40:19;;;;;;;60.88;28.15;;;;;;;-0.06;65.58;100118.67;1865300;76;25433;-61
2024/03/10 03:42:46;;;;;;;61.15;26.70;;;;;;;-0.09;65.76;100113.83;1865317;76;25527;-62
2024/03/10 03:45:12;;;;;;;63.45;29.20;;;;;;;-0.12;65.92;100113.52;1865310;76;26056;-62
2024/03/10 03:47:38;;;;;;;66.02;30.60;;;;;;;-0.13;66.09;100111.92;1865393;76;25602;-61
2024/03/10 03:50:11;;;;;;;64.32;27.87;;;;;;;-0.13;66.12;100104.74;1865293;76;27457;-61
2024/03/10 03:52:37;;;;;;;57.58;27.48;;;;;;;-0.13;66.64;100107.40;1865281;76;25539;-62
2024/03/10 03:55:10;;;;;;;55.52;24.40;;;;;;;-0.14;66.80;100106.31;1865235;76;25871;-61
2024/03/10 03:57:37;;;;;;;52.53;24.57;;;;;;;-0.13;66.96;100099.42;1865234;76;25652;-61
2024/03/10 04:00:17;;;;;;;63.05;29.85;;;;;;;-0.12;66.97;100094.91;1865304;76;25559;-61
2024/03/10 04:02:48;;;;;;;62.95;28.02;;;;;;;-0.09;67.20;100102.41;1865283;76;27636;-61
2024/03/10 04:05:17;;;;;;;56.77;28.98;;;;;;;-0.07;67.38;100101.63;1865153;76;25440;-61
2024/03/10 04:07:46;;;;;;;62.60;30.12;;;;;;;-0.05;67.49;100097.69;1865322;76;25591;-62
2024/03/10 04:10:12;;;;;;;68.10;31.10;;;;;;;-0.04;67.69;100095.83;1865352;76;26045;-62
2024/03/10 04:12:40;;;;;;;62.80;31.15;;;;;;;-0.04;67.45;100093.97;1865326;76;25616;-61
2024/03/10 04:15:10;;;;;;;62.45;29.27;;;;;;;-0.03;67.45;100092.93;1865160;76;27993;-61
2024/03/10 04:17:36;;;;;;;63.80;28.70;;;;;;;-0.01;68.00;100091.36;1865308;76;25447;-62
2024/03/10 04:20:13;;;;;;;64.82;29.12;;;;;;;-0.02;67.46;100087.91;1865191;76;25384;-62
2024/03/10 04:22:40;;;;;;;55.03;26.85;;;;;;;-0.05;67.31;100091.05;1865435;76;26441;-62
2024/03/10 04:25:11;;;;;;;58.13;27.20;;;;;;;-0.05;67.14;100085.73;1865422;76;25500;-61
2024/03/10 04:27:40;;;;;;;61.40;29.48;;;;;;;-0.06;67.26;100088.63;1865449;76;28028;-61
2024/03/10 04:30:13;;;;;;;62.17;30.90;;;;;;;-0.06;67.48;100085.97;1865347;76;25514;-61
2024/03/10 04:32:40;;;;;;;60.03;29.50;;;;;;;-0.06;67.62;100078.78;1865579;76;25702;-61
2024/03/10 04:35:11;;;;;;;69.03;33.48;;;;;;;-0.05;67.47;100076.92;1864292;76;25507;-61
2024/03/10 04:37:36;;;;;;;63.27;30.77;;;;;;;-0.05;67.33;100080.91;1859271;76;25554;-60
2024/03/10 04:40:12;;;;;;;63.65;28.85;;;;;;;-0.04;67.38;100086.52;1859209;77;27796;-60
2024/03/10 04:42:40;;;;;;;61.15;29.10;;;;;;;-0.05;67.40;100088.89;1859062;76;25647;-61
2024/03/10 04:45:11;;;;;;;63.75;29.50;;;;;;;-0.08;67.40;100087.53;1859035;76;25549;-61
2024/03/10 04:47:40;;;;;;;60.40;29.80;;;;;;;-0.08;67.45;100080.09;1859024;77;26019;-62
2024/03/10 04:50:09;;;;;;;61.40;27.93;;;;;;;-0.08;67.45;100081.42;1859113;76;25536;-62
2024/03/10 04:52:35;;;;;;;60.58;28.32;;;;;;;-0.07;67.66;100081.69;1859149;77;27472;-62
2024/03/10 04:55:10;;;;;;;69.75;31.55;;;;;;;-0.08;67.87;100078.23;1859112;77;25552;-61
2024/03/10 04:57:37;;;;;;;63.63;29.70;;;;;;;-0.05;67.80;100080.91;1859196;76;25557;-62
2024/03/10 05:00:18;;;;;;;59.42;27.87;;;;;;;-0.04;68.16;100081.20;1859014;76;25650;-63
2024/03/10 05:02:49;;;;;;;58.85;28.00;;;;;;;-0.01;68.36;100082.84;1859067;76;25367;-61
2024/03/10 05:05:16;;;;;;;62.05;28.45;;;;;;;0.01;68.43;100083.94;1858963;77;28463;-61
2024/03/10 05:07:45;;;;;;;57.65;28.30;;;;;;;0.04;68.46;100084.78;1858998;77;25490;-62
2024/03/10 05:10:11;;;;;;;58.95;29.90;;;;;;;0.07;68.58;100084.81;1859074;76;25653;-61
2024/03/10 05:12:38;;;;;;;67.60;29.80;;;;;;;0.09;68.51;100082.20;1859047;77;26071;-61
2024/03/10 05:15:15;;;;;;;64.03;32.13;;;;;;;0.14;68.48;100085.47;1859063;76;25590;-62
2024/03/10 05:17:45;;;;;;;67.37;32.88;;;;;;;0.18;68.43;100085.24;1859034;77;27574;-62
2024/03/10 05:20:18;;;;;;;67.78;29.27;;;;;;;0.21;68.38;100082.09;1859007;76;25514;-61
2024/03/10 05:22:46;;;;;;;63.08;27.70;;;;;;;0.25;68.42;100085.07;1856254;77;25510;-61
2024/03/10 05:25:14;;;;;;;58.08;27.37;;;;;;;0.26;68.41;100088.02;1858998;77;25504;-61
2024/03/10 05:27:45;;;;;;;59.40;27.20;;;;;;;0.30;68.55;100091.26;1859149;77;25556;-61
2024/03/10 05:30:16;;;;;;;58.52;29.40;;;;;;;0.34;68.67;100091.56;1859272;76;27447;-61
2024/03/10 05:32:44;;;;;;;64.27;30.52;;;;;;;0.38;68.40;100099.89;1859042;77;25571;-61
2024/03/10 05:35:11;;;;;;;60.70;28.87;;;;;;;0.43;68.50;100091.98;1859017;76;25573;-61
2024/03/10 05:37:41;;;;;;;54.50;28.25;;;;;;;0.48;68.52;100100.02;1865365;76;26236;-62
2024/03/10 05:40:14;;;;;;;60.38;29.80;;;;;;;0.51;68.44;100097.67;1865501;76;25531;-61
2024/03/10 05:42:40;;;;;;;56.65;27.50;;;;;;;0.61;68.47;100096.17;1865439;76;27464;-62
2024/03/10 05:45:11;;;;;;;65.35;30.37;;;;;;;0.68;68.43;100099.45;1864630;76;25670;-61
2024/03/10 05:47:38;;;;;;;56.18;27.50;;;;;;;0.74;68.41;100091.81;1865539;76;25496;-62
2024/03/10 05:50:09;;;;;;;55.20;25.02;;;;;;;0.82;68.55;100095.88;1865305;76;26437;-61
2024/03/10 05:52:35;;;;;;;52.88;24.98;;;;;;;0.94;68.64;100104.57;1865536;76;25641;-61
2024/03/10 05:55:01;;;;;;;54.90;26.40;;;;;;;1.05;68.63;100100.94;1865356;76;27077;-63
2024/03/10 05:57:29;;;;;;;53.20;27.52;;;;;;;1.16;68.63;100099.72;1865326;76;26448;-60
2024/03/10 05:59:55;;;;;;;57.10;28.12;;;;;;;1.26;68.33;100105.14;1865523;76;25440;-61
2024/03/10 06:02:21;;;;;;;53.95;27.13;;;;;;;1.35;68.26;100110.86;1865295;76;25531;-61
2024/03/10 06:04:49;;;;;;;55.83;26.17;;;;;;;1.45;68.21;100105.08;1865330;76;25670;-62
2024/03/10 06:07:18;;;;;;;58.23;27.30;;;;;;;1.58;68.15;100103.05;1865473;76;27494;-61
2024/03/10 06:09:46;;;;;;;55.85;28.95;;;;;;;1.70;68.05;100106.34;1865184;76;25541;-61
2024/03/10 06:12:13;;;;;;;53.08;28.12;;;;;;;1.79;67.73;100107.50;1865269;76;25444;-61
2024/03/10 06:14:39;;;;;;;54.30;28.92;;;;;;;1.91;67.79;100106.50;1864524;76;26037;-61
2024/03/10 06:17:08;;;;;;;55.75;28.83;;;;;;;2.02;67.64;100100.98;1865191;76;25417;-61
2024/03/10 06:27:57;;;;;;;53.85;27.58;;;;;;;2.39;67.03;100110.03;1780116;80;25610;-62
2024/03/10 06:30:24;;;;;;;56.13;24.80;;;;;;;2.47;66.63;100103.38;1780278;80;25734;-61
2024/03/10 06:32:52;;;;;;;53.38;24.25;;;;;;;2.53;66.54;100093.80;1780095;80;27836;-60
2024/03/10 06:35:19;;;;;;;54.63;24.90;;;;;;;2.61;66.40;100097.31;1779993;80;25747;-59
2024/03/10 06:37:49;;;;;;;46.77;24.18;;;;;;;2.71;66.43;100099.78;1777421;80;25759;-61
2024/03/10 06:40:21;;;;;;;51.05;23.87;;;;;;;2.79;66.32;100102.75;1777247;80;25563;-60
2024/03/10 06:42:47;;;;;;;58.85;28.85;;;;;;;2.92;66.72;100099.31;1777292;79;25753;-60
2024/03/10 06:45:15;;;;;;;54.18;28.20;;;;;;;3.09;66.93;100099.89;1777214;80;28500;-61
2024/03/10 06:47:42;;;;;;;51.68;26.40;;;;;;;3.26;66.21;100100.20;1777226;80;25558;-62
2024/03/10 06:50:12;;;;;;;53.45;27.15;;;;;;;3.42;66.58;100099.67;1777323;80;25755;-62
2024/03/10 06:52:40;;;;;;;52.05;27.32;;;;;;;3.66;67.45;100104.80;1777392;80;26256;-61
2024/03/10 06:55:09;;;;;;;49.27;24.87;;;;;;;3.95;67.39;100095.40;1777295;80;25704;-61
2024/03/10 06:57:38;;;;;;;49.55;24.18;;;;;;;4.32;67.57;100095.61;1777437;80;27467;-63
2024/03/10 07:00:20;;;;;;;44.50;21.95;;;;;;;4.70;67.54;100104.05;1777364;80;25571;-62
2024/03/10 07:02:47;;;;;;;55.70;23.80;;;;;;;5.05;66.67;100101.75;1839113;77;25454;-64
2024/03/10 07:05:14;;;;;;;51.20;25.05;;;;;;;5.46;65.26;100102.83;1862342;77;25494;-62
2024/03/10 07:07:41;;;;;;;50.83;24.67;;;;;;;5.69;64.16;100100.55;1861898;77;25464;-62
2024/03/10 07:10:10;;;;;;;52.17;27.13;;;;;;;5.79;62.96;100101.80;1862519;76;27910;-61
2024/03/10 07:12:38;;;;;;;50.48;26.70;;;;;;;5.91;62.73;100104.91;1862472;76;26173;-61
2024/03/10 07:15:15;;;;;;;51.45;26.25;;;;;;;6.05;62.30;100104.28;1862616;76;25364;-61
2024/03/10 07:17:41;;;;;;;46.88;23.57;;;;;;;6.30;62.53;100096.50;1862661;77;25402;-61
2024/03/10 07:20:13;;;;;;;49.85;23.90;;;;;;;6.68;63.13;100096.07;1861999;77;25227;-63
2024/03/10 07:22:41;;;;;;;44.23;23.35;;;;;;;7.20;62.92;100100.78;1862526;76;27560;-61
2024/03/10 07:25:10;;;;;;;43.45;22.35;;;;;;;7.65;61.44;100099.30;1861867;76;25600;-60
2024/03/10 07:27:38;;;;;;;42.43;21.17;;;;;;;8.04;59.90;100101.36;1862670;77;25526;-60
2024/03/10 07:30:13;;;;;;;47.83;25.17;;;;;;;8.48;59.05;100096.00;1862607;77;26484;-61
2024/03/10 07:32:39;;;;;;;41.70;21.27;;;;;;;8.91;59.01;100099.70;1862681;76;25436;-61
2024/03/10 07:35:12;;;;;;;41.15;21.52;;;;;;;9.43;58.23;100099.91;1862131;77;27899;-62
2024/03/10 07:37:41;;;;;;;42.15;21.40;;;;;;;9.83;55.88;100110.30;1864385;76;25890;-61
2024/03/10 07:40:19;;;;;;;38.28;20.62;;;;;;;10.15;56.39;100099.49;1865222;76;25511;-63
2024/03/10 07:42:49;;;;;;;41.80;21.75;;;;;;;10.65;55.81;100100.61;1865271;76;25660;-61
2024/03/10 07:45:19;;;;;;;38.78;21.52;;;;;;;11.08;52.53;100104.52;1865310;76;25615;-62
2024/03/10 07:47:49;;;;;;;38.08;22.07;;;;;;;11.45;52.83;100102.31;1865431;76;27850;-62
2024/03/10 07:50:20;;;;;;;36.73;21.75;;;;;;;12.05;51.12;100110.92;1865229;76;25530;-62
2024/03/10 07:52:47;;;;;;;35.70;20.62;;;;;;;12.83;50.54;100104.95;1865367;76;25442;-63
2024/03/10 07:55:16;;;;;;;38.63;20.48;;;;;;;13.76;49.04;100114.42;1865149;76;26135;-63
2024/03/10 07:57:43;;;;;;;75.17;68.15;;;;;;;14.48;48.45;100121.70;1865624;76;25382;-62
2024/03/10 08:00:22;;;;;;;98.95;90.00;;;;;;;15.04;45.78;100114.33;1865470;76;27447;-62
2024/03/10 08:02:46;;;;;;;33.58;19.73;;;;;;;15.42;44.28;100106.85;1865282;76;25497;-63
2024/03/10 08:05:15;;;;;;;35.00;19.40;;;;;;;15.79;43.76;100114.92;1865534;76;25431;-64
2024/03/10 08:07:46;;;;;;;33.05;19.95;;;;;;;16.06;43.51;100110.57;1865423;76;26424;-64
2024/03/10 08:10:15;;;;;;;34.48;19.92;;;;;;;16.01;42.06;100117.06;1865560;76;25534;-64
2024/03/10 08:12:49;;;;;;;32.35;19.23;;;;;;;16.22;42.32;100112.72;1865522;76;27324;-64
2024/03/10 08:15:18;;;;;;;32.80;19.40;;;;;;;16.66;41.01;100121.97;1865346;76;25552;-64
2024/03/10 08:17:44;;;;;;;31.57;19.82;;;;;;;16.46;38.17;100121.88;1865488;76;25367;-64
2024/03/10 08:20:15;;;;;;;30.48;18.30;;;;;;;16.15;38.90;100125.41;1865424;76;25537;-64
2024/03/10 08:22:45;;;;;;;28.85;17.42;;;;;;;15.78;38.60;100124.23;1865303;76;25533;-64
2024/03/10 08:25:13;;;;;;;29.98;17.10;;;;;;;15.58;39.73;100124.61;1865401;76;28032;-64
2024/03/10 08:27:43;;;;;;;32.70;17.27;;;;;;;15.51;38.42;100115.70;1865320;76;26018;-64
2024/03/10 08:30:16;;;;;;;28.83;18.23;;;;;;;15.48;39.31;100117.75;1865407;76;25494;-65
2024/03/10 08:32:43;;;;;;;26.95;16.25;;;;;;;15.61;40.47;100110.30;1865430;76;26174;-64
2024/03/10 08:35:10;;;;;;;29.55;16.97;;;;;;;16.00;39.41;100107.86;1865381;76;25657;-65
2024/03/10 08:40:18;;;;;;;27.00;16.48;;;;;;;17.11;39.66;100106.45;1736272;80;25948;-64
2024/03/10 08:42:45;;;;;;;26.27;16.65;;;;;;;18.00;38.31;100101.76;1747858;81;25943;-64
2024/03/10 08:45:12;;;;;;;94.03;86.80;;;;;;;18.72;37.16;100100.95;1738062;82;25875;-65
2024/03/10 08:47:41;;;;;;;38.65;34.73;;;;;;;19.22;35.89;100098.95;1725618;83;25569;-63
2024/03/10 08:50:10;;;;;;;75.85;69.42;;;;;;;19.60;35.39;100103.89;1717517;83;27445;-63
2024/03/10 08:52:37;;;;;;;88.35;81.40;;;;;;;19.98;35.32;100095.69;1717559;83;25519;-64
2024/03/10 08:55:05;;;;;;;25.92;16.87;;;;;;;20.46;34.68;100100.41;1717502;83;25602;-64
2024/03/10 08:57:33;;;;;;;24.82;16.77;;;;;;;20.77;34.37;100104.61;1717681;83;25483;-65
2024/03/10 09:00:00;;;;;;;23.10;17.17;;;;;;;21.23;32.48;100106.01;1717760;83;25430;-64
2024/03/10 09:02:27;;;;;;;22.52;15.60;;;;;;;21.08;32.38;100101.05;1717450;82;28213;-64
2024/03/10 09:04:54;;;;;;;24.00;16.25;;;;;;;21.41;32.27;100100.59;1717386;83;25621;-63
2024/03/10 09:07:23;;;;;;;22.67;15.88;;;;;;;21.45;31.46;100090.38;1717437;83;25448;-64
2024/03/10 09:09:49;;;;;;;23.10;17.12;;;;;;;21.78;31.75;100091.30;1717394;83;26081;-62
2024/03/10 09:12:17;;;;;;;22.50;16.42;;;;;;;22.04;30.31;100083.86;1717495;83;25480;-64
2024/03/10 09:14:44;;;;;;;26.17;16.32;;;;;;;22.17;30.56;100090.56;1717473;83;27469;-64
2024/03/10 09:17:10;;;;;;;20.77;15.58;;;;;;;22.22;29.35;100088.80;1717346;83;26163;-64
2024/03/10 09:19:40;;;;;;;21.70;15.32;;;;;;;22.26;29.34;100086.82;1717459;83;25547;-64
2024/03/10 09:22:06;;;;;;;;;;;;;;;22.49;29.86;100079.56;1719925;83;25571;-64
2024/03/10 09:24:32;;;;;;;20.50;15.63;;;;;;;22.57;28.22;100085.23;1717514;83;25414;-66
2024/03/10 09:26:59;;;;;;;19.10;14.00;;;;;;;22.52;29.51;100080.13;1717450;83;27518;-64
2024/03/10 09:29:26;;;;;;;19.75;13.43;;;;;;;22.93;30.25;100077.48;1717391;83;25608;-68
2024/03/10 09:31:56;;;;;;;18.32;12.73;;;;;;;22.86;28.61;100077.52;1717465;83;25446;-69
2024/03/10 09:34:24;;;;;;;17.10;12.80;;;;;;;22.00;28.59;100085.24;1717460;83;25546;-68
2024/03/10 09:36:51;;;;;;;18.75;13.18;;;;;;;21.14;28.12;100080.84;1717568;83;25471;-67
2024/03/10 09:39:18;;;;;;;16.45;11.83;;;;;;;20.39;27.86;100081.13;1717259;81;27482;-68
2024/03/10 09:41:47;;;;;;;16.20;12.00;;;;;;;20.00;29.88;100082.38;1717073;83;25738;-68
2024/03/10 09:44:22;;;;;;;20.35;13.32;;;;;;;19.64;29.78;100071.02;1717331;83;25441;-66
2024/03/10 09:46:49;;;;;;;18.23;13.58;;;;;;;19.51;30.13;100065.58;1717156;83;25613;-67
2024/03/10 09:49:20;;;;;;;17.55;12.53;;;;;;;19.39;29.28;100076.22;1717214;83;25645;-67
2024/03/10 09:51:53;;;;;;;18.30;13.68;;;;;;;19.08;29.93;100069.97;1717205;83;27933;-69
2024/03/10 09:54:21;;;;;;;18.67;13.05;;;;;;;19.02;30.25;100065.40;1717116;83;25460;-68
2024/03/10 09:56:50;;;;;;;17.87;12.78;;;;;;;18.72;30.09;100064.56;1717324;83;25535;-69
2024/03/10 09:59:43;;;;;;;24.15;13.38;;;;;;;18.50;30.75;100068.94;1717277;83;25615;-70
2024/03/10 10:02:21;;;;;;;19.15;12.82;;;;;;;18.45;30.70;100063.19;1717180;83;25445;-67
2024/03/10 10:04:56;;;;;;;17.52;12.58;;;;;;;18.38;31.04;100058.97;1717285;83;27846;-67
2024/03/10 10:07:26;;;;;;;17.82;13.30;;;;;;;18.51;31.91;100054.06;1717093;83;26119;-66
2024/03/10 10:10:04;;;;;;;19.70;13.53;;;;;;;18.80;31.05;100053.33;1717163;83;25534;-67
2024/03/10 10:12:31;;;;;;;19.02;14.00;;;;;;;18.64;31.63;100051.33;1717132;83;26233;-66
2024/03/10 10:14:59;;;;;;;20.45;15.03;;;;;;;19.29;30.56;100042.04;1717157;83;25616;-67
2024/03/10 10:17:25;;;;;;;19.35;12.73;;;;;;;19.82;30.25;100041.61;1717113;83;27923;-66
2024/03/10 10:19:51;;;;;;;27.00;20.23;;;;;;;20.46;29.34;100038.61;1717034;83;25777;-66
2024/03/10 10:22:20;;;;;;;18.77;13.70;;;;;;;20.67;28.11;100044.27;1717200;83;25555;-64
2024/03/10 10:25:05;;;;;;;18.32;12.33;;;;;;;20.45;27.39;100052.12;1717246;83;25405;-64
2024/03/10 10:27:47;;;;;;;18.07;13.43;;;;;;;20.13;29.65;100038.37;1717133;83;25640;-65
2024/03/10 10:30:27;;;;;;;28.98;12.58;;;;;;;19.96;29.07;100040.39;1687415;85;27483;-60
2024/03/10 10:33:14;;;;;;;21.80;12.70;;;;;;;19.85;30.23;100036.75;1687394;85;25710;-61
2024/03/10 10:35:45;;;;;;;18.10;12.35;;;;;;;20.11;30.11;100040.71;1687396;85;25612;-61
2024/03/10 10:38:13;;;;;;;15.95;11.83;;;;;;;20.24;30.19;100044.53;1687425;85;25593;-65
2024/03/10 10:40:48;;;;;;;19.90;11.55;;;;;;;20.23;29.28;100026.50;1687578;83;25557;-66
2024/03/10 10:43:16;;;;;;;18.37;12.35;;;;;;;20.18;29.12;100025.47;1687714;85;28393;-67
2024/03/10 10:45:44;;;;;;;20.37;12.28;;;;;;;19.83;29.54;100028.89;1687725;85;32873;-67
2024/03/10 10:48:12;;;;;;;19.10;12.05;;;;;;;19.39;30.08;100026.29;1687665;85;25533;-67
2024/03/10 10:50:42;;;;;;;17.02;12.68;;;;;;;19.17;30.30;100029.93;1687628;85;26070;-64
2024/03/10 10:53:07;;;;;;;17.05;12.30;;;;;;;18.93;30.83;100029.84;1687801;85;25568;-63
2024/03/10 10:55:35;;;;;;;18.57;12.80;;;;;;;18.90;30.74;100027.83;1687662;85;27463;-66
2024/03/10 10:58:04;;;;;;;19.32;13.62;;;;;;;18.73;31.09;100020.92;1687798;85;25836;-65
2024/03/10 11:00:34;;;;;;;18.23;12.85;;;;;;;18.71;31.77;100024.06;1687481;85;25661;-64
2024/03/10 11:03:24;;;;;;;21.15;13.98;;;;;;;19.23;32.07;100027.08;1687766;85;25487;-65
2024/03/10 11:06:06;;;;;;;18.60;13.13;;;;;;;19.83;31.22;100021.25;1687259;83;25531;-65
2024/03/10 11:08:35;;;;;;;26.68;17.02;;;;;;;20.27;30.75;100013.56;1717387;83;28528;-66
2024/03/10 11:11:03;;;;;;;22.82;15.32;;;;;;;20.44;30.55;100012.89;1717298;83;25635;-65
2024/03/10 11:13:30;;;;;;;20.30;14.05;;;;;;;20.47;30.17;100008.60;1717383;83;25599;-65
2024/03/10 11:16:11;;;;;;;23.42;14.10;;;;;;;20.38;29.75;99998.52;1717322;83;26425;-65
2024/03/10 11:18:43;;;;;;;21.93;15.30;;;;;;;20.12;30.00;100001.68;1717419;83;25596;-65
2024/03/10 11:21:22;;;;;;;28.07;16.32;;;;;;;19.49;30.03;100002.08;1717380;83;27513;-66
2024/03/10 11:23:50;;;;;;;20.15;13.85;;;;;;;19.16;30.66;99996.84;1717307;83;25448;-66
2024/03/10 11:26:20;;;;;;;29.57;18.32;;;;;;;18.93;30.82;99996.95;1717624;83;25628;-67
2024/03/10 11:29:00;;;;;;;20.70;14.35;;;;;;;18.58;30.84;99993.94;1717319;83;25582;-67
2024/03/10 11:31:35;;;;;;;21.85;13.78;;;;;;;18.21;31.38;99995.94;1717432;83;25542;-67
2024/03/10 11:34:03;;;;;;;25.82;15.08;;;;;;;18.15;31.70;100009.16;1717409;83;28057;-67
2024/03/10 11:36:39;;;;;;;21.85;13.58;;;;;;;18.18;31.91;100002.15;1692778;83;25841;-66
2024/03/10 11:39:07;;;;;;;24.32;15.78;;;;;;;18.39;31.58;99995.63;1717279;83;25593;-66
2024/03/10 11:41:36;;;;;;;23.25;14.68;;;;;;;18.59;32.05;99995.50;1717105;83;25554;-63
2024/03/10 11:44:04;;;;;;;18.90;12.82;;;;;;;18.61;31.24;100000.02;1717020;83;25907;-62
2024/03/10 11:46:33;;;;;;;20.43;13.85;;;;;;;18.46;31.56;99993.58;1716830;83;28208;-64
2024/03/10 11:49:06;;;;;;;17.87;13.20;;;;;;;18.44;31.57;99989.06;1716938;83;25565;-66
2024/03/10 11:51:33;;;;;;;21.52;13.45;;;;;;;18.65;31.81;99992.08;1716350;83;25582;-60